createdAt,value
2023-04-20T00:00:31.972Z,4.777777777777828
2023-04-20T00:01:31.997Z,4.777777777777828
2023-04-20T00:02:32.075Z,4.777777777777828
2023-04-20T00:03:32.152Z,4.777777777777828
2023-04-20T00:04:31.993Z,4.777777777777828
2023-04-20T00:05:32.242Z,4.777777777777828
2023-04-20T00:06:31.963Z,4.777777777777828
2023-04-20T00:07:31.963Z,4.777777777777828
2023-04-20T00:08:31.977Z,4.722222222222285
2023-04-20T00:09:32.020Z,4.722222222222285
2023-04-20T00:10:31.981Z,4.722222222222285
2023-04-20T00:11:32.117Z,4.722222222222285
2023-04-20T00:12:31.962Z,4.611111111111143
2023-04-20T00:13:31.986Z,4.611111111111143
2023-04-20T00:14:31.974Z,4.611111111111143
2023-04-20T00:15:31.961Z,4.611111111111143
2023-04-20T00:16:32.004Z,4.611111111111143
2023-04-20T00:17:32.125Z,4.611111111111143
2023-04-20T00:18:31.987Z,4.611111111111143
2023-04-20T00:19:31.967Z,4.611111111111143
2023-04-20T00:20:31.977Z,4.611111111111143
2023-04-20T00:21:32.060Z,4.611111111111143
2023-04-20T00:22:31.986Z,4.611111111111143
2023-04-20T00:23:32.021Z,4.611111111111143
2023-04-20T00:24:32.012Z,4.611111111111143
2023-04-20T00:25:31.986Z,4.500000000000057
2023-04-20T00:26:32.035Z,4.500000000000057
2023-04-20T00:27:31.974Z,4.500000000000057
2023-04-20T00:28:31.989Z,4.500000000000057
2023-04-20T00:29:32.060Z,4.500000000000057
2023-04-20T00:30:31.986Z,4.500000000000057
2023-04-20T00:31:32.097Z,4.388888888888914
2023-04-20T00:32:32.004Z,4.388888888888914
2023-04-20T00:33:31.962Z,4.388888888888914
2023-04-20T00:34:31.999Z,4.388888888888914
2023-04-20T00:35:31.962Z,4.388888888888914
2023-04-20T00:36:32.005Z,4.388888888888914
2023-04-20T00:37:31.975Z,4.388888888888914
2023-04-20T00:38:31.966Z,4.388888888888914
2023-04-20T00:39:31.984Z,4.388888888888914
2023-04-20T00:40:31.984Z,4.277777777777828
2023-04-20T00:41:31.960Z,4.277777777777828
2023-04-20T00:42:32.007Z,4.277777777777828
2023-04-20T00:43:31.989Z,4.277777777777828
2023-04-20T00:44:31.976Z,4.277777777777828
2023-04-20T00:45:31.969Z,4.277777777777828
2023-04-20T00:46:32.006Z,4.277777777777828
2023-04-20T00:47:32.030Z,4.277777777777828
2023-04-20T00:48:31.974Z,4.277777777777828
2023-04-20T00:49:31.986Z,4.277777777777828
2023-04-20T00:50:31.995Z,4.222222222222285
2023-04-20T00:51:31.977Z,4.222222222222285
2023-04-20T00:52:31.956Z,4.222222222222285
2023-04-20T00:53:31.956Z,4.222222222222285
2023-04-20T00:54:31.995Z,4.277777777777828
2023-04-20T00:55:31.965Z,4.222222222222285
2023-04-20T00:56:31.986Z,4.222222222222285
2023-04-20T00:57:31.985Z,4.222222222222285
2023-04-20T00:58:32.005Z,4.222222222222285
2023-04-20T00:59:31.951Z,4.222222222222285
2023-04-20T01:00:31.991Z,4.222222222222285
2023-04-20T01:01:32.110Z,4.222222222222285
2023-04-20T01:02:32.101Z,4.222222222222285
2023-04-20T01:03:32.163Z,4.222222222222285
2023-04-20T01:04:32.032Z,4.222222222222285
2023-04-20T01:05:31.964Z,4.222222222222285
2023-04-20T01:06:31.968Z,4.111111111111143
2023-04-20T01:07:31.953Z,4.111111111111143
2023-04-20T01:08:31.980Z,4.111111111111143
2023-04-20T01:09:31.977Z,4.111111111111143
2023-04-20T01:10:31.987Z,4.000000000000057
2023-04-20T01:11:31.964Z,4.000000000000057
2023-04-20T01:12:31.972Z,4.000000000000057
2023-04-20T01:13:31.988Z,4.000000000000057
2023-04-20T01:14:32.021Z,4.000000000000057
2023-04-20T01:15:31.987Z,4.000000000000057
2023-04-20T01:16:32.099Z,4.000000000000057
2023-04-20T01:17:32.005Z,4.000000000000057
2023-04-20T01:18:31.983Z,4.000000000000057
2023-04-20T01:19:31.962Z,3.888888888888914
2023-04-20T01:20:31.961Z,3.888888888888914
2023-04-20T01:21:31.953Z,3.888888888888914
2023-04-20T01:22:31.973Z,3.888888888888914
2023-04-20T01:23:31.964Z,3.888888888888914
2023-04-20T01:24:31.954Z,3.888888888888914
2023-04-20T01:25:31.969Z,3.888888888888914
2023-04-20T01:26:31.954Z,3.888888888888914
2023-04-20T01:27:31.976Z,3.7777777777778283
2023-04-20T01:28:31.985Z,3.7777777777778283
2023-04-20T01:29:31.969Z,3.7777777777778283
2023-04-20T01:30:31.949Z,3.7777777777778283
2023-04-20T01:31:32.036Z,3.7777777777778283
2023-04-20T01:32:31.971Z,3.7777777777778283
2023-04-20T01:33:31.968Z,3.7777777777778283
2023-04-20T01:34:31.956Z,3.7777777777778283
2023-04-20T01:35:32.104Z,3.7777777777778283
2023-04-20T01:36:32.003Z,3.7777777777778283
2023-04-20T01:37:31.982Z,3.7777777777778283
2023-04-20T01:38:31.993Z,3.7777777777778283
2023-04-20T01:39:32.014Z,3.7777777777778283
2023-04-20T01:40:32.094Z,3.7777777777778283
2023-04-20T01:41:32.126Z,3.7777777777778283
2023-04-20T01:42:32.055Z,3.7777777777778283
2023-04-20T01:43:32.121Z,3.7777777777778283
2023-04-20T01:44:32.160Z,3.7777777777778283
2023-04-20T01:45:32.034Z,3.7777777777778283
2023-04-20T01:46:32.153Z,3.7777777777778283
2023-04-20T01:47:32.146Z,3.7222222222222854
2023-04-20T01:48:32.128Z,3.7222222222222854
2023-04-20T01:49:32.152Z,3.7222222222222854
2023-04-20T01:50:32.077Z,3.7222222222222854
2023-04-20T01:51:32.104Z,3.7222222222222854
2023-04-20T01:52:32.114Z,3.7222222222222854
2023-04-20T01:53:32.068Z,3.7222222222222854
2023-04-20T01:54:32.127Z,3.7222222222222854
2023-04-20T01:55:32.038Z,3.7222222222222854
2023-04-20T01:56:32.086Z,3.7222222222222854
2023-04-20T01:57:32.127Z,3.7222222222222854
2023-04-20T01:58:32.062Z,3.6111111111111427
2023-04-20T01:59:31.997Z,3.6111111111111427
2023-04-20T02:00:32.056Z,3.6111111111111427
2023-04-20T02:01:31.974Z,3.6111111111111427
2023-04-20T02:02:32.106Z,3.6111111111111427
2023-04-20T02:03:32.144Z,3.6111111111111427
2023-04-20T02:04:32.009Z,3.6111111111111427
2023-04-20T02:05:31.980Z,3.6111111111111427
2023-04-20T02:06:31.996Z,3.6111111111111427
2023-04-20T02:07:31.966Z,3.6111111111111427
2023-04-20T02:08:31.980Z,3.6111111111111427
2023-04-20T02:09:31.963Z,3.500000000000057
2023-04-20T02:10:31.965Z,3.500000000000057
2023-04-20T02:11:31.967Z,3.500000000000057
2023-04-20T02:12:32.046Z,3.500000000000057
2023-04-20T02:13:31.981Z,3.500000000000057
2023-04-20T02:14:31.970Z,3.500000000000057
2023-04-20T02:15:31.978Z,3.388888888888971
2023-04-20T02:16:32.017Z,3.388888888888971
2023-04-20T02:17:31.978Z,3.388888888888971
2023-04-20T02:18:31.943Z,3.388888888888971
2023-04-20T02:19:31.931Z,3.388888888888971
2023-04-20T02:20:31.993Z,3.388888888888971
2023-04-20T02:21:31.972Z,3.388888888888971
2023-04-20T02:22:31.983Z,3.388888888888971
2023-04-20T02:23:31.946Z,3.388888888888971
2023-04-20T02:24:31.929Z,3.388888888888971
2023-04-20T02:25:31.953Z,3.388888888888971
2023-04-20T02:26:31.967Z,3.388888888888971
2023-04-20T02:27:31.936Z,3.388888888888971
2023-04-20T02:28:32.017Z,3.388888888888971
2023-04-20T02:29:31.977Z,3.388888888888971
2023-04-20T02:30:31.946Z,3.2777777777778283
2023-04-20T02:31:31.966Z,3.2777777777778283
2023-04-20T02:32:32.000Z,3.2777777777778283
2023-04-20T02:33:31.973Z,3.2777777777778283
2023-04-20T02:34:31.947Z,3.2777777777778283
2023-04-20T02:35:31.922Z,3.2777777777778283
2023-04-20T02:36:32.005Z,3.2777777777778283
2023-04-20T02:37:31.953Z,3.2777777777778283
2023-04-20T02:38:32.017Z,3.2777777777778283
2023-04-20T02:39:31.946Z,3.2777777777778283
2023-04-20T02:40:31.984Z,3.2777777777778283
2023-04-20T02:41:31.969Z,3.2777777777778283
2023-04-20T02:42:31.954Z,3.2777777777778283
2023-04-20T02:43:31.995Z,3.2222222222222854
2023-04-20T02:44:31.970Z,3.2222222222222854
2023-04-20T02:45:31.945Z,3.2222222222222854
2023-04-20T02:46:31.961Z,3.2222222222222854
2023-04-20T02:47:31.995Z,3.2222222222222854
2023-04-20T02:48:31.991Z,3.2222222222222854
2023-04-20T02:49:32.006Z,3.2222222222222854
2023-04-20T02:50:31.953Z,3.2222222222222854
2023-04-20T02:51:31.948Z,3.2222222222222854
2023-04-20T02:52:31.971Z,3.2222222222222854
2023-04-20T02:53:31.974Z,3.2222222222222854
2023-04-20T02:54:31.958Z,3.2222222222222854
2023-04-20T02:55:32.063Z,3.2222222222222854
2023-04-20T02:56:31.989Z,3.2222222222222854
2023-04-20T02:57:31.991Z,3.1111111111111427
2023-04-20T02:58:31.958Z,3.2222222222222854
2023-04-20T02:59:31.974Z,3.1111111111111427
2023-04-20T03:00:31.985Z,3.1111111111111427
2023-04-20T03:01:31.995Z,3.1111111111111427
2023-04-20T03:02:32.185Z,3.1111111111111427
2023-04-20T03:03:32.088Z,3.000000000000057
2023-04-20T03:04:32.679Z,3.000000000000057
2023-04-20T03:05:31.963Z,3.000000000000057
2023-04-20T03:06:31.945Z,3.000000000000057
2023-04-20T03:07:31.964Z,2.888888888888914
2023-04-20T03:08:31.977Z,2.888888888888914
2023-04-20T03:09:32.008Z,2.888888888888914
2023-04-20T03:10:32.132Z,2.888888888888914
2023-04-20T03:11:31.943Z,2.888888888888914
2023-04-20T03:12:31.975Z,2.888888888888914
2023-04-20T03:13:32.098Z,2.888888888888914
2023-04-20T03:14:32.075Z,2.888888888888914
2023-04-20T03:15:32.072Z,2.888888888888914
2023-04-20T03:16:32.128Z,2.888888888888914
2023-04-20T03:17:32.078Z,2.888888888888914
2023-04-20T03:18:31.965Z,2.7777777777778283
2023-04-20T03:19:32.036Z,2.7777777777778283
2023-04-20T03:20:32.042Z,2.7777777777778283
2023-04-20T03:21:32.128Z,2.7777777777778283
2023-04-20T03:22:31.937Z,2.7777777777778283
2023-04-20T03:23:31.934Z,2.7777777777778283
2023-04-20T03:24:32.859Z,2.7777777777778283
2023-04-20T03:25:31.954Z,2.7777777777778283
2023-04-20T03:26:32.078Z,2.7777777777778283
2023-04-20T03:27:32.050Z,2.7777777777778283
2023-04-20T03:28:32.013Z,2.7777777777778283
2023-04-20T03:29:31.963Z,2.7777777777778283
2023-04-20T03:30:32.081Z,2.7777777777778283
2023-04-20T03:31:32.102Z,2.7777777777778283
2023-04-20T03:32:32.825Z,2.7777777777778283
2023-04-20T03:33:31.969Z,2.7777777777778283
2023-04-20T03:34:32.118Z,2.7777777777778283
2023-04-20T03:35:31.948Z,2.7222222222222285
2023-04-20T03:36:31.999Z,2.7222222222222285
2023-04-20T03:37:31.987Z,2.7222222222222285
2023-04-20T03:38:32.095Z,2.7222222222222285
2023-04-20T03:39:31.960Z,2.7222222222222285
2023-04-20T03:40:32.074Z,2.7222222222222285
2023-04-20T03:41:32.014Z,2.7222222222222285
2023-04-20T03:42:32.072Z,2.7222222222222285
2023-04-20T03:43:32.048Z,2.7222222222222285
2023-04-20T03:44:32.147Z,2.7222222222222285
2023-04-20T03:45:32.077Z,2.7222222222222285
2023-04-20T03:46:32.109Z,2.7222222222222285
2023-04-20T03:47:31.980Z,2.7222222222222285
2023-04-20T03:48:31.979Z,2.7222222222222285
2023-04-20T03:49:32.161Z,2.7222222222222285
2023-04-20T03:50:32.112Z,2.7222222222222285
2023-04-20T03:51:31.938Z,2.7222222222222285
2023-04-20T03:52:32.061Z,2.7222222222222285
2023-04-20T03:53:31.953Z,2.7222222222222285
2023-04-20T03:54:31.959Z,2.7222222222222285
2023-04-20T03:55:31.946Z,2.7222222222222285
2023-04-20T03:56:31.976Z,2.7222222222222285
2023-04-20T03:57:31.974Z,2.7777777777778283
2023-04-20T03:58:31.930Z,2.7222222222222285
2023-04-20T03:59:31.971Z,2.7777777777778283
2023-04-20T04:00:31.943Z,2.7777777777778283
2023-04-20T04:01:31.938Z,2.7222222222222285
2023-04-20T04:02:32.081Z,2.7222222222222285
2023-04-20T04:03:32.201Z,2.7222222222222285
2023-04-20T04:04:32.179Z,2.7222222222222285
2023-04-20T04:05:32.104Z,2.7777777777778283
2023-04-20T04:06:31.921Z,2.7777777777778283
2023-04-20T04:07:31.964Z,2.7777777777778283
2023-04-20T04:08:31.970Z,2.7777777777778283
2023-04-20T04:09:31.986Z,2.7777777777778283
2023-04-20T04:10:31.965Z,2.888888888888914
2023-04-20T04:11:31.985Z,2.888888888888914
2023-04-20T04:12:31.985Z,2.7777777777778283
2023-04-20T04:13:33.923Z,2.888888888888914
2023-04-20T04:14:31.909Z,2.888888888888914
2023-04-20T04:15:31.934Z,2.888888888888914
2023-04-20T04:16:31.986Z,2.888888888888914
2023-04-20T04:17:31.994Z,2.888888888888914
2023-04-20T04:18:31.915Z,3.000000000000057
2023-04-20T04:19:31.931Z,3.000000000000057
2023-04-20T04:20:32.021Z,3.000000000000057
2023-04-20T04:21:31.949Z,3.000000000000057
2023-04-20T04:22:31.939Z,3.1111111111111427
2023-04-20T04:23:31.947Z,3.1111111111111427
2023-04-20T04:24:31.941Z,3.1111111111111427
2023-04-20T04:25:31.987Z,3.1111111111111427
2023-04-20T04:26:32.018Z,3.1111111111111427
2023-04-20T04:27:31.957Z,3.1111111111111427
2023-04-20T04:28:31.943Z,3.2222222222222854
2023-04-20T04:29:31.975Z,3.2222222222222854
2023-04-20T04:30:31.953Z,3.2777777777778283
2023-04-20T04:31:32.086Z,3.2777777777778283
2023-04-20T04:32:32.031Z,3.2777777777778283
2023-04-20T04:33:31.995Z,3.388888888888971
2023-04-20T04:34:31.999Z,3.388888888888971
2023-04-20T04:35:32.000Z,3.388888888888971
2023-04-20T04:36:31.928Z,3.500000000000057
2023-04-20T04:37:32.010Z,3.500000000000057
2023-04-20T04:38:31.951Z,3.500000000000057
2023-04-20T04:39:32.016Z,3.6111111111111427
2023-04-20T04:40:31.944Z,3.6111111111111427
2023-04-20T04:41:31.959Z,3.6111111111111427
2023-04-20T04:42:31.969Z,3.7222222222222854
2023-04-20T04:43:31.954Z,3.7222222222222854
2023-04-20T04:44:31.937Z,3.7777777777778283
2023-04-20T04:45:31.954Z,3.7777777777778283
2023-04-20T04:46:31.977Z,3.888888888888914
2023-04-20T04:47:31.968Z,4.000000000000057
2023-04-20T04:48:32.100Z,4.111111111111143
2023-04-20T04:49:31.958Z,4.111111111111143
2023-04-20T04:50:31.955Z,4.222222222222285
2023-04-20T04:51:31.976Z,4.222222222222285
2023-04-20T04:52:31.942Z,4.277777777777828
2023-04-20T04:53:32.010Z,4.277777777777828
2023-04-20T04:54:31.964Z,4.388888888888914
2023-04-20T04:55:31.919Z,4.500000000000057
2023-04-20T04:56:32.119Z,4.722222222222285
2023-04-20T04:57:31.961Z,4.777777777777828
2023-04-20T04:58:31.990Z,5.000000000000057
2023-04-20T04:59:31.963Z,5.111111111111143
2023-04-20T05:00:31.952Z,5.111111111111143
2023-04-20T05:01:31.988Z,5.111111111111143
2023-04-20T05:02:32.277Z,5.000000000000057
2023-04-20T05:03:32.093Z,5.000000000000057
2023-04-20T05:04:32.154Z,5.2222222222222285
2023-04-20T05:05:31.940Z,5.277777777777828
2023-04-20T05:06:31.982Z,5.388888888888914
2023-04-20T05:07:31.941Z,5.722222222222285
2023-04-20T05:08:31.951Z,5.777777777777828
2023-04-20T05:09:31.973Z,6.277777777777828
2023-04-20T05:10:32.035Z,6.500000000000057
2023-04-20T05:11:31.965Z,6.777777777777828
2023-04-20T05:12:31.959Z,6.888888888888914
2023-04-20T05:13:31.931Z,6.888888888888914
2023-04-20T05:14:31.985Z,6.888888888888914
2023-04-20T05:15:31.976Z,7.111111111111143
2023-04-20T05:16:32.010Z,7.111111111111143
2023-04-20T05:17:32.007Z,7.111111111111143
2023-04-20T05:18:32.001Z,7.000000000000057
2023-04-20T05:19:31.960Z,7.000000000000057
2023-04-20T05:20:31.969Z,7.000000000000057
2023-04-20T05:21:31.930Z,7.000000000000057
2023-04-20T05:22:31.966Z,6.777777777777828
2023-04-20T05:23:31.958Z,6.777777777777828
2023-04-20T05:24:31.901Z,6.777777777777828
2023-04-20T05:25:31.948Z,6.777777777777828
2023-04-20T05:26:31.969Z,6.777777777777828
2023-04-20T05:27:31.987Z,6.777777777777828
2023-04-20T05:28:31.945Z,6.722222222222285
2023-04-20T05:29:31.956Z,6.722222222222285
2023-04-20T05:30:31.935Z,6.722222222222285
2023-04-20T05:31:31.985Z,6.722222222222285
2023-04-20T05:32:31.939Z,6.722222222222285
2023-04-20T05:33:31.936Z,6.722222222222285
2023-04-20T05:34:31.954Z,6.777777777777828
2023-04-20T05:35:31.956Z,7.222222222222285
2023-04-20T05:36:32.180Z,7.222222222222285
2023-04-20T05:37:31.954Z,7.222222222222285
2023-04-20T05:38:31.945Z,7.222222222222285
2023-04-20T05:39:31.956Z,7.388888888888914
2023-04-20T05:40:31.943Z,7.500000000000057
2023-04-20T05:41:31.949Z,7.500000000000057
2023-04-20T05:42:31.953Z,8.000000000000057
2023-04-20T05:43:31.993Z,8.111111111111143
2023-04-20T05:44:31.957Z,8.111111111111143
2023-04-20T05:45:31.962Z,8.222222222222285
2023-04-20T05:46:31.907Z,8.222222222222285
2023-04-20T05:47:31.985Z,8.222222222222285
2023-04-20T05:48:32.013Z,8.277777777777828
2023-04-20T05:49:31.917Z,8.277777777777828
2023-04-20T05:50:31.989Z,8.388888888888971
2023-04-20T05:51:31.941Z,8.277777777777828
2023-04-20T05:52:31.935Z,8.500000000000057
2023-04-20T05:53:31.960Z,8.500000000000057
2023-04-20T05:54:31.997Z,8.500000000000057
2023-04-20T05:55:31.989Z,8.611111111111143
2023-04-20T05:56:31.942Z,8.722222222222285
2023-04-20T05:57:31.958Z,8.777777777777828
2023-04-20T05:58:31.941Z,8.777777777777828
2023-04-20T05:59:31.963Z,8.888888888888914
2023-04-20T06:00:31.952Z,9.000000000000057
2023-04-20T06:01:31.916Z,9.222222222222285
2023-04-20T06:02:32.119Z,9.222222222222285
2023-04-20T06:03:32.106Z,9.222222222222285
2023-04-20T06:04:32.238Z,9.277777777777828
2023-04-20T06:05:32.148Z,9.277777777777828
2023-04-20T06:06:31.989Z,9.277777777777828
2023-04-20T06:07:31.946Z,9.222222222222285
2023-04-20T06:08:31.957Z,9.000000000000057
2023-04-20T06:09:31.918Z,9.000000000000057
2023-04-20T06:10:31.975Z,9.000000000000057
2023-04-20T06:11:31.945Z,9.000000000000057
2023-04-20T06:12:31.973Z,9.000000000000057
2023-04-20T06:13:31.952Z,9.000000000000057
2023-04-20T06:14:31.933Z,9.000000000000057
2023-04-20T06:15:32.174Z,9.000000000000057
2023-04-20T06:16:32.065Z,8.888888888888914
2023-04-20T06:17:31.982Z,8.777777777777828
2023-04-20T06:18:31.980Z,8.611111111111143
2023-04-20T06:19:31.960Z,8.388888888888971
2023-04-20T06:20:31.965Z,8.222222222222285
2023-04-20T06:21:31.946Z,8.222222222222285
2023-04-20T06:22:31.986Z,8.388888888888971
2023-04-20T06:23:31.987Z,8.611111111111143
2023-04-20T06:24:31.973Z,8.888888888888914
2023-04-20T06:25:31.927Z,8.888888888888914
2023-04-20T06:26:31.979Z,9.111111111111143
2023-04-20T06:27:31.949Z,9.111111111111143
2023-04-20T06:28:31.952Z,9.111111111111143
2023-04-20T06:29:31.946Z,9.111111111111143
2023-04-20T06:30:31.954Z,9.111111111111143
2023-04-20T06:31:31.996Z,9.111111111111143
2023-04-20T06:32:31.991Z,9.111111111111143
2023-04-20T06:33:31.919Z,9.111111111111143
2023-04-20T06:34:32.016Z,9.111111111111143
2023-04-20T06:35:31.978Z,9.111111111111143
2023-04-20T06:36:31.944Z,9.000000000000057
2023-04-20T06:37:31.932Z,8.888888888888914
2023-04-20T06:38:31.948Z,8.722222222222285
2023-04-20T06:39:31.969Z,8.611111111111143
2023-04-20T06:40:31.950Z,8.611111111111143
2023-04-20T06:41:31.968Z,8.611111111111143
2023-04-20T06:42:31.952Z,8.722222222222285
2023-04-20T06:43:31.890Z,8.722222222222285
2023-04-20T06:44:31.924Z,8.777777777777828
2023-04-20T06:45:33.923Z,8.888888888888914
2023-04-20T06:46:31.966Z,9.000000000000057
2023-04-20T06:47:32.003Z,9.111111111111143
2023-04-20T06:48:32.979Z,9.388888888888914
2023-04-20T06:49:31.920Z,9.500000000000057
2023-04-20T06:50:31.961Z,9.722222222222285
2023-04-20T06:51:31.919Z,9.722222222222285
2023-04-20T06:52:31.940Z,9.777777777777828
2023-04-20T06:53:31.951Z,9.777777777777828
2023-04-20T06:54:31.982Z,9.777777777777828
2023-04-20T06:55:31.914Z,9.777777777777828
2023-04-20T06:56:33.054Z,9.777777777777828
2023-04-20T06:57:31.931Z,9.777777777777828
2023-04-20T06:58:31.972Z,9.777777777777828
2023-04-20T06:59:31.940Z,9.888888888888914
2023-04-20T07:00:31.935Z,10.000000000000057
2023-04-20T07:01:32.013Z,10.111111111111143
2023-04-20T07:02:32.075Z,10.222222222222229
2023-04-20T07:03:32.024Z,10.111111111111143
2023-04-20T07:04:32.001Z,10.111111111111143
2023-04-20T07:05:31.929Z,10.222222222222229
2023-04-20T07:06:31.949Z,10.277777777777828
2023-04-20T07:07:31.939Z,10.277777777777828
2023-04-20T07:08:32.001Z,10.388888888888914
2023-04-20T07:09:31.940Z,10.388888888888914
2023-04-20T07:10:31.932Z,10.388888888888914
2023-04-20T07:11:32.005Z,10.388888888888914
2023-04-20T07:12:31.928Z,10.388888888888914
2023-04-20T07:13:33.706Z,10.388888888888914
2023-04-20T07:14:31.980Z,10.500000000000057
2023-04-20T07:15:31.907Z,10.611111111111143
2023-04-20T07:16:32.061Z,10.611111111111143
2023-04-20T07:17:31.949Z,10.611111111111143
2023-04-20T07:18:34.676Z,10.611111111111143
2023-04-20T07:19:31.925Z,10.611111111111143
2023-04-20T07:20:31.940Z,10.722222222222285
2023-04-20T07:21:31.943Z,10.722222222222285
2023-04-20T07:22:31.953Z,10.722222222222285
2023-04-20T07:23:31.940Z,10.777777777777828
2023-04-20T07:24:31.860Z,10.888888888888971
2023-04-20T07:25:31.927Z,10.888888888888971
2023-04-20T07:26:31.971Z,11.111111111111143
2023-04-20T07:27:31.934Z,11.222222222222285
2023-04-20T07:28:31.939Z,11.222222222222285
2023-04-20T07:29:33.914Z,11.277777777777828
2023-04-20T07:30:31.919Z,11.277777777777828
2023-04-20T07:31:34.082Z,11.500000000000057
2023-04-20T07:32:31.949Z,11.6111111111112
2023-04-20T07:33:32.001Z,11.722222222222229
2023-04-20T07:34:31.966Z,11.722222222222229
2023-04-20T07:35:31.942Z,11.6111111111112
2023-04-20T07:36:31.939Z,11.6111111111112
2023-04-20T07:37:31.935Z,11.722222222222229
2023-04-20T07:38:31.936Z,11.722222222222229
2023-04-20T07:39:32.097Z,11.277777777777828
2023-04-20T07:40:31.968Z,11.277777777777828
2023-04-20T07:41:31.944Z,11.277777777777828
2023-04-20T07:42:31.911Z,11.722222222222229
2023-04-20T07:43:31.948Z,11.888888888888971
2023-04-20T07:44:31.926Z,12.111111111111143
2023-04-20T07:45:31.981Z,12.388888888888914
2023-04-20T07:46:31.918Z,12.500000000000057
2023-04-20T07:47:31.992Z,12.611111111111143
2023-04-20T07:48:31.967Z,12.777777777777828
2023-04-20T07:49:32.016Z,12.722222222222285
2023-04-20T07:50:31.949Z,12.388888888888914
2023-04-20T07:51:31.936Z,12.388888888888914
2023-04-20T07:52:31.905Z,12.611111111111143
2023-04-20T07:53:31.929Z,12.777777777777828
2023-04-20T07:54:31.919Z,12.777777777777828
2023-04-20T07:55:31.917Z,12.777777777777828
2023-04-20T07:56:31.920Z,12.777777777777828
2023-04-20T07:57:31.966Z,12.611111111111143
2023-04-20T07:58:31.925Z,12.277777777777828
2023-04-20T07:59:31.926Z,12.277777777777828
2023-04-20T08:00:31.928Z,12.722222222222285
2023-04-20T08:01:31.951Z,12.777777777777828
2023-04-20T08:02:32.023Z,12.777777777777828
2023-04-20T08:03:32.215Z,12.777777777777828
2023-04-20T08:04:32.176Z,13.000000000000057
2023-04-20T08:05:32.085Z,13.111111111111143
2023-04-20T08:06:31.965Z,13.222222222222285
2023-04-20T08:07:31.988Z,13.277777777777828
2023-04-20T08:08:31.938Z,13.388888888888914
2023-04-20T08:09:31.970Z,13.500000000000057
2023-04-20T08:10:31.926Z,13.6111111111112
2023-04-20T08:11:31.938Z,13.722222222222285
2023-04-20T08:12:31.962Z,13.722222222222285
2023-04-20T08:13:31.930Z,13.6111111111112
2023-04-20T08:14:31.954Z,13.222222222222285
2023-04-20T08:15:32.134Z,12.777777777777828
2023-04-20T08:16:32.001Z,12.722222222222285
2023-04-20T08:17:31.977Z,12.777777777777828
2023-04-20T08:18:31.942Z,13.111111111111143
2023-04-20T08:19:31.938Z,13.111111111111143
2023-04-20T08:21:31.933Z,13.388888888888914
2023-04-20T08:22:31.983Z,13.722222222222285
2023-04-20T08:23:31.920Z,14.000000000000057
2023-04-20T08:24:32.026Z,14.1111111111112
2023-04-20T08:25:31.918Z,14.277777777777828
2023-04-20T08:26:31.881Z,14.277777777777828
2023-04-20T08:27:31.923Z,14.388888888888971
2023-04-20T08:28:33.812Z,14.5
2023-04-20T08:29:31.905Z,14.5
2023-04-20T08:30:32.009Z,14.5
2023-04-20T08:31:31.974Z,14.5
2023-04-20T08:32:31.939Z,14.611111111111143
2023-04-20T08:33:31.923Z,14.611111111111143
2023-04-20T08:34:31.938Z,14.5
2023-04-20T08:35:31.930Z,14.1111111111112
2023-04-20T08:36:31.916Z,14.1111111111112
2023-04-20T08:37:32.956Z,14.1111111111112
2023-04-20T08:38:34.224Z,14.222222222222229
2023-04-20T08:39:31.908Z,14.222222222222229
2023-04-20T08:40:31.956Z,14.388888888888971
2023-04-20T08:41:31.942Z,14.5
2023-04-20T08:42:31.942Z,14.5
2023-04-20T08:43:31.946Z,14.611111111111143
2023-04-20T08:44:31.917Z,14.611111111111143
2023-04-20T08:45:32.006Z,14.611111111111143
2023-04-20T08:46:31.982Z,14.722222222222285
2023-04-20T08:47:31.929Z,14.722222222222285
2023-04-20T08:48:33.668Z,14.888888888888914
2023-04-20T08:49:31.890Z,15.000000000000057
2023-04-20T08:50:31.932Z,15.000000000000057
2023-04-20T08:51:31.941Z,15.000000000000057
2023-04-20T08:52:31.947Z,14.777777777777828
2023-04-20T08:53:31.937Z,14.722222222222285
2023-04-20T08:54:32.628Z,14.5
2023-04-20T08:55:31.928Z,14.611111111111143
2023-04-20T08:56:31.905Z,14.722222222222285
2023-04-20T08:57:31.926Z,14.722222222222285
2023-04-20T08:58:31.953Z,14.777777777777828
2023-04-20T08:59:31.942Z,15.111111111111143
2023-04-20T09:00:31.962Z,15.111111111111143
2023-04-20T09:01:35.575Z,14.777777777777828
2023-04-20T09:02:32.105Z,14.722222222222285
2023-04-20T09:03:32.056Z,14.777777777777828
2023-04-20T09:04:31.964Z,14.777777777777828
2023-04-20T09:05:32.049Z,14.777777777777828
2023-04-20T09:06:31.942Z,14.777777777777828
2023-04-20T09:07:31.924Z,14.888888888888914
2023-04-20T09:08:31.921Z,15.000000000000057
2023-04-20T09:09:31.974Z,15.000000000000057
2023-04-20T09:10:31.967Z,15.388888888888914
2023-04-20T09:11:31.946Z,15.500000000000057
2023-04-20T09:12:31.893Z,15.388888888888914
2023-04-20T09:13:31.882Z,15.000000000000057
2023-04-20T09:14:32.042Z,14.888888888888914